Time;durP1;ratioP1;P1;durP2;ratioP2;P2;SDS_P1;SDS_P2;PMS_P1;PMS_P2;Temp;Humidity;BMP_temperature;BMP_pressure;BME280_temperature;BME280_humidity;BME280_pressure;Samples;Min_cycle;Max_cycle;Signal;HPM_P1;HPM_P2
2022/02/03 00:00:23;;;;;;;7.70;7.03;;;;;;;;;;6247271;23;19992;-76
2022/02/03 00:03:15;;;;;;;12.50;5.15;;;;;;;;;;6249107;23;20291;-75
2022/02/03 00:05:45;;;;;;;;;;;;;;;;;;6250018;23;20023;-75
2022/02/03 00:08:20;;;;;;;6.80;6.20;;;;;;;;;;6249743;23;19900;-75
2022/02/03 00:16:45;;;;;;;6.88;6.35;;;;;;;;;;6249567;23;19996;-75
2022/02/03 00:22:08;;;;;;;13.63;8.35;;;;;;;;;;6249845;23;20333;-75
2022/02/03 00:24:49;;;;;;;21.92;10.13;;;;;;;;;;6222349;23;20314;-75
2022/02/03 00:27:52;;;;;;;8.10;7.03;;;;;;;;;;6222914;23;19984;-75
2022/02/03 00:30:20;;;;;;;5.97;5.47;;;;;;;;;;6246782;23;20078;-75
2022/02/03 00:33:11;;;;;;;4.57;4.25;;;;;;;;;;6248955;23;20399;-74
2022/02/03 00:48:59;;;;;;;18.95;7.68;;;;;;;;;;6249417;23;19992;-75
2022/02/03 00:51:26;;;;;;;3.22;3.03;;;;;;;;;;6222802;23;19988;-76
2022/02/03 00:53:55;;;;;;;4.43;4.13;;;;;;;;;;6197694;23;20008;-75
2022/02/03 00:56:26;;;;;;;13.27;5.43;;;;;;;;;;6249224;23;20310;-75
2022/02/03 00:58:57;;;;;;;8.20;7.38;;;;;;;;;;6249226;23;20349;-74
2022/02/03 01:01:28;;;;;;;15.15;10.02;;;;;;;;;;6249124;23;20409;-74
2022/02/03 01:03:55;;;;;;;7.43;6.57;;;;;;;;;;6197161;23;20004;-74
2022/02/03 01:06:22;;;;;;;8.25;7.55;;;;;;;;;;6248903;23;19996;-74
2022/02/03 01:08:50;;;;;;;6.97;6.43;;;;;;;;;;6249132;23;19988;-75
2022/02/03 01:11:23;;;;;;;7.32;6.55;;;;;;;;;;6248226;23;19992;-75
2022/02/03 01:13:56;;;;;;;12.95;8.73;;;;;;;;;;6247665;23;19999;-74
2022/02/03 01:16:42;;;;;;;11.80;9.32;;;;;;;;;;6249519;23;20119;-74
2022/02/03 01:46:01;;;;;;;6.18;5.68;;;;;;;;;;6251306;23;20371;-74
2022/02/03 01:53:57;;;;;;;7.15;6.60;;;;;;;;;;6248812;23;20022;-73
2022/02/03 01:56:26;;;;;;;10.65;5.50;;;;;;;;;;6221914;23;19993;-73
2022/02/03 01:58:56;;;;;;;13.75;7.80;;;;;;;;;;6222598;23;20062;-73
2022/02/03 02:01:27;;;;;;;11.80;9.20;;;;;;;;;;6247933;23;20063;-73
2022/02/03 02:04:02;;;;;;;2.22;2.13;;;;;;;;;;6249231;23;20005;-73
2022/02/03 02:06:39;;;;;;;8.70;8.00;;;;;;;;;;6247673;23;19992;-74
2022/02/03 02:09:25;;;;;;;8.50;6.00;;;;;;;;;;6247922;23;19992;-74
2022/02/03 02:12:17;;;;;;;11.02;6.40;;;;;;;;;;6220988;23;20068;-73
2022/02/03 02:15:33;;;;;;;6.57;5.13;;;;;;;;;;6221249;23;19992;-74
2022/02/03 02:37:22;;;;;;;12.00;7.18;;;;;;;;;;6248263;23;19998;-72
2022/02/03 02:40:00;;;;;;;;;;;;;;;;;;6221109;23;19996;-73
2022/02/03 02:42:47;;;;;;;10.50;4.07;;;;;;;;;;6222853;23;19966;-74
2022/02/03 02:45:14;;;;;;;6.78;6.07;;;;;;;;;;6235905;23;20030;-73
2022/02/03 02:47:52;;;;;;;7.90;5.82;;;;;;;;;;6245917;23;20402;-74
2022/02/03 02:56:29;;;;;;;4.47;4.10;;;;;;;;;;6218317;23;20000;-74
2022/02/03 02:59:01;;;;;;;6.72;6.20;;;;;;;;;;6237503;23;20089;-73
2022/02/03 03:31:54;;;;;;;5.50;5.10;;;;;;;;;;6221699;23;20374;-74
2022/02/03 03:34:56;;;;;;;3.22;3.03;;;;;;;;;;6221479;23;20046;-74
2022/02/03 03:37:34;;;;;;;11.45;5.68;;;;;;;;;;6222939;23;19996;-73
2022/02/03 03:40:02;;;;;;;4.82;4.43;;;;;;;;;;6248563;23;20000;-73
2022/02/03 03:42:33;;;;;;;18.08;9.88;;;;;;;;;;6222082;23;20270;-73
2022/02/03 03:44:59;;;;;;;;;;;;;;;;;;6227239;23;20075;-73
2022/02/03 03:47:28;;;;;;;14.45;5.43;;;;;;;;;;6226506;23;19899;-73
2022/02/03 03:50:15;;;;;;;3.03;2.80;;;;;;;;;;6250282;23;20402;-74
2022/02/03 03:52:56;;;;;;;4.75;4.35;;;;;;;;;;6194498;23;20059;-74
2022/02/03 04:38:06;;;;;;;7.30;6.07;;;;;;;;;;6247394;23;20007;-74
2022/02/03 05:01:26;;;;;;;8.20;7.45;;;;;;;;;;6253422;23;20059;-73
2022/02/03 05:04:30;;;;;;;11.15;7.50;;;;;;;;;;6253235;23;20075;-74
2022/02/03 05:19:43;;;;;;;6.18;5.68;;;;;;;;;;6256185;23;19992;-75
2022/02/03 05:32:07;;;;;;;7.28;6.70;;;;;;;;;;6249597;23;19992;-73
2022/02/03 05:34:57;;;;;;;3.95;3.65;;;;;;;;;;6219361;23;20000;-75
2022/02/03 05:48:17;;;;;;;5.40;4.53;;;;;;;;;;6248601;23;20003;-74
2022/02/03 06:14:55;;;;;;;5.95;4.97;;;;;;;;;;6249668;23;20311;-73
2022/02/03 06:17:38;;;;;;;4.78;3.83;;;;;;;;;;6247803;23;19996;-75
2022/02/03 06:22:56;;;;;;;2.25;2.05;;;;;;;;;;6220709;23;20033;-75
2022/02/03 06:28:07;;;;;;;4.25;3.88;;;;;;;;;;6245228;23;20019;-75
2022/02/03 06:30:34;;;;;;;6.03;5.43;;;;;;;;;;6243797;23;20007;-74
2022/02/03 06:33:00;;;;;;;4.35;4.05;;;;;;;;;;6245951;23;20063;-75
2022/02/03 06:35:27;;;;;;;2.13;2.03;;;;;;;;;;6219625;23;20003;-75
2022/02/03 06:38:00;;;;;;;3.47;3.20;;;;;;;;;;6242307;23;20000;-75
2022/02/03 06:40:32;;;;;;;3.33;3.03;;;;;;;;;;6245827;23;19992;-74
2022/02/03 06:42:59;;;;;;;3.30;3.10;;;;;;;;;;6195198;23;20054;-75
2022/02/03 06:45:43;;;;;;;2.63;2.53;;;;;;;;;;6219002;23;20408;-73
2022/02/03 06:48:15;;;;;;;8.40;6.85;;;;;;;;;;6192586;23;19996;-75
2022/02/03 06:50:50;;;;;;;7.53;5.43;;;;;;;;;;6217185;23;20252;-73
2022/02/03 06:53:20;;;;;;;4.78;4.38;;;;;;;;;;6197404;23;20325;-74
2022/02/03 06:56:04;;;;;;;1.85;1.75;;;;;;;;;;6248583;23;19996;-74
2022/02/03 07:01:06;;;;;;;0.85;0.85;;;;;;;;;;6247084;23;19988;-75
2022/02/03 07:03:37;;;;;;;3.92;3.60;;;;;;;;;;6221687;23;20098;-74
2022/02/03 07:06:12;;;;;;;2.17;1.95;;;;;;;;;;6222950;23;20067;-74
2022/02/03 07:08:43;;;;;;;4.80;4.38;;;;;;;;;;6245256;23;20003;-74
2022/02/03 07:11:09;;;;;;;1.55;1.45;;;;;;;;;;6223879;23;19996;-76
2022/02/03 07:13:36;;;;;;;2.80;2.60;;;;;;;;;;6249559;23;20022;-73
2022/02/03 07:16:03;;;;;;;4.85;4.43;;;;;;;;;;6219705;23;20000;-75
2022/02/03 07:18:30;;;;;;;5.18;4.80;;;;;;;;;;6219948;23;20099;-74
2022/02/03 07:20:56;;;;;;;4.00;3.70;;;;;;;;;;6221586;23;20068;-75
2022/02/03 07:23:22;;;;;;;8.52;6.25;;;;;;;;;;6222157;23;20361;-73
2022/02/03 07:25:48;;;;;;;3.03;2.70;;;;;;;;;;6246115;23;20349;-74
2022/02/03 07:28:14;;;;;;;4.47;3.70;;;;;;;;;;6245144;23;20379;-72
2022/02/03 07:30:41;;;;;;;18.13;7.80;;;;;;;;;;6244184;23;20070;-72
2022/02/03 07:33:09;;;;;;;5.13;4.70;;;;;;;;;;6242835;23;19992;-73
2022/02/03 07:35:36;;;;;;;4.90;4.45;;;;;;;;;;6216394;23;20012;-74
2022/02/03 07:38:05;;;;;;;6.03;5.60;;;;;;;;;;6216844;23;20421;-74
2022/02/03 07:40:32;;;;;;;2.55;2.45;;;;;;;;;;6220298;23;20016;-74
2022/02/03 07:45:31;;;;;;;3.38;3.10;;;;;;;;;;6199300;22;20078;-74
2022/02/03 07:53:40;;;;;;;4.85;4.45;;;;;;;;;;6213457;23;19915;-75
2022/02/03 07:59:00;;;;;;;2.80;2.60;;;;;;;;;;6216418;23;20407;-75
2022/02/03 08:15:06;;;;;;;;;;;;;;;;;;6210945;23;20617;-74
2022/02/03 08:20:19;;;;;;;;;;;;;;;;;;6234856;23;20080;-73
2022/02/03 08:36:46;;;;;;;2.88;2.67;;;;;;;;;;6208412;23;20403;-74
2022/02/03 08:39:21;;;;;;;4.68;4.28;;;;;;;;;;6191167;23;19996;-74
2022/02/03 08:42:05;;;;;;;0.60;0.60;;;;;;;;;;6216311;23;20051;-74
2022/02/03 08:45:15;;;;;;;3.20;3.00;;;;;;;;;;6130972;23;20070;-74
2022/02/03 08:53:50;;;;;;;2.03;1.92;;;;;;;;;;6208644;23;20020;-74
2022/02/03 08:56:34;;;;;;;7.95;5.43;;;;;;;;;;6195182;23;20041;-73
2022/02/03 09:34:18;;;;;;;2.20;2.10;;;;;;;;;;6218301;23;20012;-73
2022/02/03 09:38:51;;;;;;;1.95;1.85;;;;;;;;;;6236127;23;20023;-73
2022/02/03 09:58:27;;;;;;;6.70;4.90;;;;;;;;;;6187993;23;20072;-73
2022/02/03 10:01:24;;;;;;;1.48;1.35;;;;;;;;;;6241543;23;20425;-73
2022/02/03 10:06:26;;;;;;;3.30;2.58;;;;;;;;;;6226166;23;20326;-73
2022/02/03 10:12:00;;;;;;;5.47;4.97;;;;;;;;;;6205915;23;20047;-73
2022/02/03 10:14:39;;;;;;;1.13;1.13;;;;;;;;;;6191047;23;20075;-73
2022/02/03 10:20:08;;;;;;;1.05;0.98;;;;;;;;;;6217520;22;20260;-74
2022/02/03 10:28:19;;;;;;;0.85;0.85;;;;;;;;;;6199109;23;20013;-74
2022/02/03 10:31:10;;;;;;;4.57;2.25;;;;;;;;;;6112898;23;20032;-80
2022/02/03 10:33:40;;;;;;;3.40;3.10;;;;;;;;;;6253991;23;19997;-79
2022/02/03 10:36:14;;;;;;;4.57;2.50;;;;;;;;;;6255660;23;20000;-79
2022/02/03 10:39:00;;;;;;;3.53;3.30;;;;;;;;;;6256805;23;20027;-79
2022/02/03 10:46:58;;;;;;;1.88;1.50;;;;;;;;;;6252284;23;19995;-80
2022/02/03 10:54:47;;;;;;;4.05;2.60;;;;;;;;;;6251298;23;20003;-80
2022/02/03 11:05:57;;;;;;;8.32;4.88;;;;;;;;;;6249381;23;20015;-80
2022/02/03 11:08:37;;;;;;;3.15;1.90;;;;;;;;;;6197199;23;20058;-80
2022/02/03 11:11:07;;;;;;;1.42;1.40;;;;;;;;;;6249335;23;19996;-80
2022/02/03 11:13:35;;;;;;;5.88;3.92;;;;;;;;;;6222695;23;19993;-79
2022/02/03 11:16:03;;;;;;;1.17;1.08;;;;;;;;;;6245886;23;20008;-79
2022/02/03 11:18:29;;;;;;;0.43;0.43;;;;;;;;;;6249675;23;19999;-80
2022/02/03 11:20:55;;;;;;;4.75;1.88;;;;;;;;;;6223924;23;19989;-80
2022/02/03 11:28:59;;;;;;;0.30;0.30;;;;;;;;;;6251672;23;19989;-81
2022/02/03 11:37:32;;;;;;;2.55;2.35;;;;;;;;;;6157272;23;20005;-80
2022/02/03 12:12:43;;;;;;;2.30;1.55;;;;;;;;;;6251386;23;20382;-80
2022/02/03 12:20:59;;;;;;;1.30;1.25;;;;;;;;;;6249229;23;19999;-80
2022/02/03 12:23:52;;;;;;;4.72;2.00;;;;;;;;;;6197883;23;19992;-79
2022/02/03 12:26:26;;;;;;;3.67;3.45;;;;;;;;;;6222371;23;20005;-79
2022/02/03 12:28:54;;;;;;;7.13;3.00;;;;;;;;;;6222409;23;20000;-80
2022/02/03 12:39:47;;;;;;;1.63;1.15;;;;;;;;;;6252010;23;20053;-80
2022/02/03 12:45:13;;;;;;;1.17;1.08;;;;;;;;;;6251616;23;20004;-80
2022/02/03 12:55:39;;;;;;;2.22;2.13;;;;;;;;;;6222481;23;20039;-80
2022/02/03 12:58:10;;;;;;;0.40;0.40;;;;;;;;;;6252666;23;19989;-80
2022/02/03 13:00:46;;;;;;;3.45;2.72;;;;;;;;;;6252123;23;19992;-80
2022/02/03 13:03:16;;;;;;;3.67;3.15;;;;;;;;;;6224478;23;19992;-80
2022/02/03 13:05:51;;;;;;;1.67;1.58;;;;;;;;;;6226065;23;20043;-80
2022/02/03 13:08:17;;;;;;;1.67;1.58;;;;;;;;;;6226198;23;19988;-80
2022/02/03 13:10:43;;;;;;;0.57;0.57;;;;;;;;;;6225877;23;20000;-80
2022/02/03 13:13:10;;;;;;;4.22;3.90;;;;;;;;;;6225840;23;20365;-80
2022/02/03 13:15:42;;;;;;;8.10;2.53;;;;;;;;;;6253600;23;20015;-80
2022/02/03 13:18:23;;;;;;;1.55;1.17;;;;;;;;;;6225243;23;20291;-80
2022/02/03 13:21:17;;;;;;;0.93;0.93;;;;;;;;;;6224766;23;20031;-80
2022/02/03 13:23:50;;;;;;;0.82;0.80;;;;;;;;;;6252542;23;19988;-80
2022/02/03 13:26:22;;;;;;;0.65;0.65;;;;;;;;;;6255433;23;19992;-80
2022/02/03 13:28:59;;;;;;;3.45;3.15;;;;;;;;;;6202518;23;19992;-81
2022/02/03 13:31:41;;;;;;;2.28;1.98;;;;;;;;;;6200917;23;20372;-80
2022/02/03 13:34:17;;;;;;;0.70;0.43;;;;;;;;;;6199680;23;19996;-80
2022/02/03 13:36:49;;;;;;;3.72;1.95;;;;;;;;;;6225308;23;19984;-80
2022/02/03 13:39:25;;;;;;;1.98;1.88;;;;;;;;;;6224702;23;20063;-80
2022/02/03 13:42:00;;;;;;;10.77;5.00;;;;;;;;;;6252203;23;20046;-80
2022/02/03 13:44:28;;;;;;;5.22;4.43;;;;;;;;;;6224591;23;20008;-80
2022/02/03 13:46:54;;;;;;;0.75;0.75;;;;;;;;;;6224463;23;20358;-81
2022/02/03 13:49:22;;;;;;;3.10;2.83;;;;;;;;;;6251198;23;19996;-80
2022/02/03 13:52:05;;;;;;;2.22;2.03;;;;;;;;;;6221980;23;19996;-80
2022/02/03 14:16:22;;;;;;;2.28;2.10;;;;;;;;;;6250492;23;20306;-80
2022/02/03 14:21:43;;;;;;;2.88;2.28;;;;;;;;;;6250846;23;20118;-80
2022/02/03 14:27:08;;;;;;;25.55;1.67;;;;;;;;;;6251177;23;20321;-80
2022/02/03 14:29:42;;;;;;;3.15;1.92;;;;;;;;;;6223715;23;19991;-80
2022/02/03 14:32:09;;;;;;;1.30;1.27;;;;;;;;;;6199530;23;20028;-80
2022/02/03 14:34:36;;;;;;;0.55;0.55;;;;;;;;;;6224348;23;20310;-81
2022/02/03 14:37:27;;;;;;;1.65;1.55;;;;;;;;;;6224089;23;20036;-80
2022/02/03 14:42:31;;;;;;;2.53;2.33;;;;;;;;;;6250157;23;20058;-80
2022/02/03 14:44:58;;;;;;;2.70;2.58;;;;;;;;;;6251125;23;20366;-80
2022/02/03 14:47:27;;;;;;;1.00;1.00;;;;;;;;;;6224760;23;19988;-80
2022/02/03 14:49:54;;;;;;;0.65;0.65;;;;;;;;;;6224075;23;20061;-80
2022/02/03 15:00:24;;;;;;;2.53;2.40;;;;;;;;;;6251378;23;19996;-81
2022/02/03 15:02:50;;;;;;;1.95;1.85;;;;;;;;;;6251133;23;19984;-80
2022/02/03 15:05:29;;;;;;;2.88;2.28;;;;;;;;;;6250485;23;20399;-80
2022/02/03 15:08:03;;;;;;;2.67;2.47;;;;;;;;;;6249855;23;20353;-80
2022/02/03 15:13:32;;;;;;;2.28;2.17;;;;;;;;;;6250271;23;19988;-81
2022/02/03 15:15:59;;;;;;;0.30;0.30;;;;;;;;;;6221475;23;20068;-79
2022/02/03 15:18:26;;;;;;;0.63;0.63;;;;;;;;;;6221755;23;19988;-81
2022/02/03 15:20:52;;;;;;;1.15;1.13;;;;;;;;;;6251484;23;20288;-80
2022/02/03 15:23:18;;;;;;;4.00;3.70;;;;;;;;;;6251486;23;20154;-80
2022/02/03 15:25:44;;;;;;;1.67;1.58;;;;;;;;;;6224129;23;20014;-80
2022/02/03 15:28:10;;;;;;;6.90;5.18;;;;;;;;;;6250181;23;19988;-81
2022/02/03 15:30:36;;;;;;;2.53;2.08;;;;;;;;;;6224076;23;19996;-80
2022/02/03 15:33:04;;;;;;;3.17;2.92;;;;;;;;;;6224361;23;20023;-80
2022/02/03 15:35:41;;;;;;;3.22;2.50;;;;;;;;;;6225066;23;20015;-80
2022/02/03 15:38:12;;;;;;;0.73;0.73;;;;;;;;;;6252780;23;20011;-80
2022/02/03 15:40:39;;;;;;;1.00;1.00;;;;;;;;;;6226100;23;20000;-80
2022/02/03 15:43:10;;;;;;;0.60;0.60;;;;;;;;;;6253346;23;19988;-80
2022/02/03 15:45:40;;;;;;;1.98;1.88;;;;;;;;;;6225105;23;20011;-80
2022/02/03 15:48:29;;;;;;;0.68;0.68;;;;;;;;;;6225717;23;20066;-80
2022/02/03 16:17:26;;;;;;;0.35;0.35;;;;;;;;;;6252189;23;20063;-80
2022/02/03 16:20:06;;;;;;;0.98;0.98;;;;;;;;;;6251699;23;20063;-80
2022/02/03 16:25:29;;;;;;;2.72;2.53;;;;;;;;;;6251387;23;20011;-80
2022/02/03 16:52:45;;;;;;;9.45;2.35;;;;;;;;;;6251092;23;19984;-80
2022/02/03 16:55:15;;;;;;;1.27;1.23;;;;;;;;;;6225626;23;20004;-80
2022/02/03 16:57:42;;;;;;;2.20;2.10;;;;;;;;;;6225522;23;19988;-80
2022/02/03 17:00:18;;;;;;;2.30;2.10;;;;;;;;;;6252076;23;20059;-80
2022/02/03 17:02:44;;;;;;;2.58;2.38;;;;;;;;;;6224407;23;19992;-80
2022/02/03 17:05:11;;;;;;;2.83;1.83;;;;;;;;;;6250493;23;20004;-80
2022/02/03 17:07:37;;;;;;;0.60;0.60;;;;;;;;;;6224235;23;19984;-80
2022/02/03 17:10:04;;;;;;;4.85;1.92;;;;;;;;;;6224512;23;19996;-80
2022/02/03 17:12:30;;;;;;;1.65;1.55;;;;;;;;;;6251242;23;20015;-80
2022/02/03 17:14:59;;;;;;;1.05;1.02;;;;;;;;;;6250920;23;19996;-80
2022/02/03 17:17:25;;;;;;;4.03;3.70;;;;;;;;;;6250396;23;19995;-80
2022/02/03 17:19:53;;;;;;;1.83;1.73;;;;;;;;;;6250751;23;19996;-80
2022/02/03 17:22:25;;;;;;;0.93;0.93;;;;;;;;;;6251293;23;20301;-80
2022/02/03 17:25:04;;;;;;;1.08;1.08;;;;;;;;;;6223906;23;20118;-80
2022/02/03 17:27:45;;;;;;;0.80;0.80;;;;;;;;;;6251038;23;19992;-80
2022/02/03 17:30:28;;;;;;;1.65;1.55;;;;;;;;;;6224235;23;19999;-80
2022/02/03 18:03:14;;;;;;;0.85;0.85;;;;;;;;;;6250543;23;20054;-80
2022/02/03 18:30:21;;;;;;;2.55;1.75;;;;;;;;;;6250736;23;20083;-81
2022/02/03 18:53:35;;;;;;;2.15;1.95;;;;;;;;;;6250446;23;19988;-80
2022/02/03 18:56:14;;;;;;;2.50;2.03;;;;;;;;;;6199215;23;20015;-80
2022/02/03 19:01:25;;;;;;;0.13;0.13;;;;;;;;;;6250868;23;20306;-80
2022/02/03 19:26:13;;;;;;;1.85;1.75;;;;;;;;;;6249854;23;20331;-80
2022/02/03 19:28:58;;;;;;;2.95;2.50;;;;;;;;;;6249849;23;19992;-80
2022/02/03 20:07:14;;;;;;;0.85;0.85;;;;;;;;;;6098816;23;20091;-80
2022/02/03 20:10:05;;;;;;;2.55;1.65;;;;;;;;;;6098588;23;20066;-80
2022/02/03 20:12:31;;;;;;;1.30;1.15;;;;;;;;;;6205160;23;20365;-80
2022/02/03 20:14:58;;;;;;;1.50;1.42;;;;;;;;;;6198978;23;20034;-80
2022/02/03 20:17:27;;;;;;;1.05;1.05;;;;;;;;;;6250594;23;20003;-80
2022/02/03 20:19:53;;;;;;;2.33;2.15;;;;;;;;;;6252422;23;19992;-80
2022/02/03 20:22:20;;;;;;;7.45;3.88;;;;;;;;;;6252269;23;20071;-80
2022/02/03 20:24:48;;;;;;;1.98;1.88;;;;;;;;;;6224440;23;20383;-80
2022/02/03 20:27:16;;;;;;;0.50;0.50;;;;;;;;;;6251744;23;20061;-80
2022/02/03 20:29:42;;;;;;;1.40;1.35;;;;;;;;;;6250103;23;20308;-80
2022/02/03 20:32:09;;;;;;;2.80;2.58;;;;;;;;;;6248936;23;20296;-79
2022/02/03 20:34:35;;;;;;;1.80;1.17;;;;;;;;;;6252497;23;19992;-80
2022/02/03 20:37:02;;;;;;;1.95;1.85;;;;;;;;;;6251286;23;20386;-80
2022/02/03 20:39:28;;;;;;;2.33;2.22;;;;;;;;;;6252569;23;19988;-80
2022/02/03 20:41:54;;;;;;;0.52;0.52;;;;;;;;;;6252185;23;19995;-80
2022/02/03 20:44:20;;;;;;;3.15;2.95;;;;;;;;;;6251988;23;20000;-81
2022/02/03 20:46:46;;;;;;;1.15;1.08;;;;;;;;;;6251884;23;20042;-80
2022/02/03 20:49:13;;;;;;;1.25;1.23;;;;;;;;;;6252357;23;20409;-80
2022/02/03 20:51:40;;;;;;;4.47;4.07;;;;;;;;;;6252111;23;20317;-80
2022/02/03 20:54:06;;;;;;;1.75;1.65;;;;;;;;;;6225177;23;20063;-80
2022/02/03 20:56:32;;;;;;;3.85;3.58;;;;;;;;;;6225727;23;20004;-80
2022/02/03 20:59:03;;;;;;;1.55;1.45;;;;;;;;;;6199974;23;20071;-80
2022/02/03 21:01:33;;;;;;;1.75;1.65;;;;;;;;;;6200578;23;20007;-80
2022/02/03 21:04:26;;;;;;;2.83;1.23;;;;;;;;;;6252094;23;19991;-79
2022/02/03 21:06:52;;;;;;;1.90;1.60;;;;;;;;;;6200717;23;20386;-79
2022/02/03 21:09:18;;;;;;;2.08;1.73;;;;;;;;;;6227641;23;19995;-79
2022/02/03 21:11:44;;;;;;;2.03;1.92;;;;;;;;;;6255705;23;20003;-79
2022/02/03 21:14:10;;;;;;;11.02;3.97;;;;;;;;;;6254676;23;19984;-80
2022/02/03 21:16:36;;;;;;;2.85;2.65;;;;;;;;;;6228180;23;20004;-80
2022/02/03 21:19:02;;;;;;;1.05;1.05;;;;;;;;;;6255023;23;20043;-79
2022/02/03 21:21:30;;;;;;;1.60;1.50;;;;;;;;;;6256828;23;20048;-80
2022/02/03 21:23:56;;;;;;;1.52;1.40;;;;;;;;;;6228000;23;19996;-79
2022/02/03 21:26:32;;;;;;;0.80;0.80;;;;;;;;;;6226979;23;20070;-80
2022/02/03 21:28:59;;;;;;;2.00;1.90;;;;;;;;;;6226101;23;20394;-80
2022/02/03 21:31:25;;;;;;;2.33;2.13;;;;;;;;;;6255948;23;20028;-80
2022/02/03 21:33:55;;;;;;;1.15;0.63;;;;;;;;;;6225982;23;20050;-80
2022/02/03 21:36:22;;;;;;;5.67;3.63;;;;;;;;;;6225468;23;20394;-80
2022/02/03 21:38:49;;;;;;;7.13;4.32;;;;;;;;;;6200770;23;20217;-80
2022/02/03 21:41:17;;;;;;;2.83;2.55;;;;;;;;;;6200174;23;19993;-80
2022/02/03 21:43:43;;;;;;;2.75;2.55;;;;;;;;;;6225845;23;20038;-80
2022/02/03 21:46:10;;;;;;;2.67;2.47;;;;;;;;;;6251004;23;20094;-79
2022/02/03 21:48:38;;;;;;;2.92;2.15;;;;;;;;;;6224390;23;20012;-80
2022/02/03 21:51:05;;;;;;;4.55;4.22;;;;;;;;;;6225502;23;19988;-80
2022/02/03 21:53:33;;;;;;;1.20;1.20;;;;;;;;;;6224864;23;19992;-80
2022/02/03 21:56:00;;;;;;;3.92;3.63;;;;;;;;;;6225694;23;20007;-80
2022/02/03 21:58:26;;;;;;;4.28;2.60;;;;;;;;;;6225082;23;20035;-80
2022/02/03 22:00:53;;;;;;;3.35;3.15;;;;;;;;;;6224663;23;19992;-80
2022/02/03 22:03:20;;;;;;;3.08;2.90;;;;;;;;;;6252235;23;19992;-80
2022/02/03 22:05:46;;;;;;;2.97;2.67;;;;;;;;;;6225368;23;20319;-80
2022/02/03 22:08:12;;;;;;;7.38;3.40;;;;;;;;;;6225369;23;20066;-80
2022/02/03 22:10:38;;;;;;;5.60;4.35;;;;;;;;;;6225143;23;20050;-80
2022/02/03 22:13:04;;;;;;;2.78;2.53;;;;;;;;;;6252222;23;20414;-80
2022/02/03 22:15:30;;;;;;;4.28;3.97;;;;;;;;;;6253251;23;19988;-80
2022/02/03 22:17:57;;;;;;;2.50;2.30;;;;;;;;;;6252038;23;19996;-80
2022/02/03 22:20:31;;;;;;;3.60;3.30;;;;;;;;;;6251603;23;19995;-80
2022/02/03 22:49:44;;;;;;;1.08;1.08;;;;;;;;;;6252037;23;19992;-79
2022/02/03 22:52:11;;;;;;;3.08;2.88;;;;;;;;;;6251376;23;19988;-79
2022/02/03 22:54:37;;;;;;;7.68;5.68;;;;;;;;;;6224690;23;20008;-80
2022/02/03 22:57:03;;;;;;;2.53;2.38;;;;;;;;;;6223322;23;19992;-79
2022/02/03 23:02:08;;;;;;;0.65;0.65;;;;;;;;;;6248360;23;19988;-78
2022/02/03 23:04:35;;;;;;;1.60;1.50;;;;;;;;;;6260469;23;20040;-79
2022/02/03 23:07:24;;;;;;;1.42;1.38;;;;;;;;;;6199800;23;19996;-80
2022/02/03 23:10:01;;;;;;;2.55;2.35;;;;;;;;;;6224535;23;19992;-79
2022/02/03 23:17:57;;;;;;;21.02;5.97;;;;;;;;;;6224653;23;20071;-79
2022/02/03 23:20:28;;;;;;;4.88;3.72;;;;;;;;;;6251883;23;19996;-80
2022/02/03 23:22:54;;;;;;;3.67;3.40;;;;;;;;;;6199975;23;19992;-79
2022/02/03 23:25:21;;;;;;;1.27;0.98;;;;;;;;;;6250918;23;20010;-79
2022/02/03 23:30:17;;;;;;;6.22;4.10;;;;;;;;;;6251249;23;20063;-80
2022/02/03 23:32:43;;;;;;;7.65;4.53;;;;;;;;;;6199613;23;19992;-80
2022/02/03 23:37:38;;;;;;;1.83;1.73;;;;;;;;;;6224834;23;20345;-80
2022/02/03 23:40:12;;;;;;;1.05;1.05;;;;;;;;;;6224369;23;20350;-79
2022/02/03 23:48:34;;;;;;;3.28;2.67;;;;;;;;;;6251189;23;19988;-80
